sensor_id;sensor_type;location;lat;lon;timestamp;temperature;humidity
14093;DHT22;7123;49.468;10.992;2024-01-06T00:00:08;6.80;99.90
14093;DHT22;7123;49.468;10.992;2024-01-06T00:02:35;6.80;99.90
14093;DHT22;7123;49.468;10.992;2024-01-06T00:05:01;6.80;99.90
14093;DHT22;7123;49.468;10.992;2024-01-06T00:07:28;6.80;99.90
14093;DHT22;7123;49.468;10.992;2024-01-06T00:09:55;6.80;99.90
14093;DHT22;7123;49.468;10.992;2024-01-06T00:12:22;6.80;99.90
14093;DHT22;7123;49.468;10.992;2024-01-06T00:14:49;6.80;99.90
14093;DHT22;7123;49.468;10.992;2024-01-06T00:17:16;6.70;99.90
14093;DHT22;7123;49.468;10.992;2024-01-06T00:19:43;6.70;99.90
14093;DHT22;7123;49.468;10.992;2024-01-06T00:22:10;6.70;99.90
14093;DHT22;7123;49.468;10.992;2024-01-06T00:24:37;6.60;99.90
14093;DHT22;7123;49.468;10.992;2024-01-06T00:27:04;6.60;99.90
14093;DHT22;7123;49.468;10.992;2024-01-06T00:29:31;6.60;99.90
14093;DHT22;7123;49.468;10.992;2024-01-06T00:31:57;6.60;99.90
14093;DHT22;7123;49.468;10.992;2024-01-06T00:34:24;6.60;99.90
14093;DHT22;7123;49.468;10.992;2024-01-06T00:36:51;6.60;99.90
14093;DHT22;7123;49.468;10.992;2024-01-06T00:39:19;6.60;99.90
14093;DHT22;7123;49.468;10.992;2024-01-06T00:41:46;6.50;99.90
14093;DHT22;7123;49.468;10.992;2024-01-06T00:44:13;6.50;99.90
14093;DHT22;7123;49.468;10.992;2024-01-06T00:46:40;6.40;99.90
14093;DHT22;7123;49.468;10.992;2024-01-06T00:49:06;6.40;99.90
14093;DHT22;7123;49.468;10.992;2024-01-06T00:51:33;6.40;99.90
14093;DHT22;7123;49.468;10.992;2024-01-06T00:54:05;6.40;99.90
14093;DHT22;7123;49.468;10.992;2024-01-06T00:56:32;6.40;99.90
14093;DHT22;7123;49.468;10.992;2024-01-06T00:58:59;6.40;99.90
14093;DHT22;7123;49.468;10.992;2024-01-06T01:01:26;6.40;99.90
14093;DHT22;7123;49.468;10.992;2024-01-06T01:03:52;6.40;99.90
14093;DHT22;7123;49.468;10.992;2024-01-06T01:06:19;6.40;99.90
14093;DHT22;7123;49.468;10.992;2024-01-06T01:08:46;6.50;99.90
14093;DHT22;7123;49.468;10.992;2024-01-06T01:11:13;6.50;99.90
14093;DHT22;7123;49.468;10.992;2024-01-06T01:13:40;6.50;99.90
14093;DHT22;7123;49.468;10.992;2024-01-06T01:16:06;6.50;99.90
14093;DHT22;7123;49.468;10.992;2024-01-06T01:18:33;6.50;99.90
14093;DHT22;7123;49.468;10.992;2024-01-06T01:21:00;6.50;99.90
14093;DHT22;7123;49.468;10.992;2024-01-06T01:23:27;6.50;99.90
14093;DHT22;7123;49.468;10.992;2024-01-06T01:25:54;6.50;99.90
14093;DHT22;7123;49.468;10.992;2024-01-06T01:28:21;6.40;99.90
14093;DHT22;7123;49.468;10.992;2024-01-06T01:30:48;6.50;99.90
14093;DHT22;7123;49.468;10.992;2024-01-06T01:33:15;6.50;99.90
14093;DHT22;7123;49.468;10.992;2024-01-06T01:35:42;6.50;99.90
14093;DHT22;7123;49.468;10.992;2024-01-06T01:38:08;6.50;99.90
14093;DHT22;7123;49.468;10.992;2024-01-06T01:40:35;6.40;99.90
14093;DHT22;7123;49.468;10.992;2024-01-06T01:43:02;6.40;99.90
14093;DHT22;7123;49.468;10.992;2024-01-06T01:45:29;6.50;99.90
14093;DHT22;7123;49.468;10.992;2024-01-06T01:47:55;6.50;99.90
14093;DHT22;7123;49.468;10.992;2024-01-06T01:50:22;6.50;99.90
14093;DHT22;7123;49.468;10.992;2024-01-06T01:52:49;6.50;99.90
14093;DHT22;7123;49.468;10.992;2024-01-06T01:55:16;6.60;99.90
14093;DHT22;7123;49.468;10.992;2024-01-06T01:57:44;6.60;99.90
14093;DHT22;7123;49.468;10.992;2024-01-06T02:00:11;6.60;99.90
14093;DHT22;7123;49.468;10.992;2024-01-06T02:02:38;6.60;99.90
14093;DHT22;7123;49.468;10.992;2024-01-06T02:05:05;6.60;99.90
14093;DHT22;7123;49.468;10.992;2024-01-06T02:07:32;6.60;99.90
14093;DHT22;7123;49.468;10.992;2024-01-06T02:09:59;6.50;99.90
14093;DHT22;7123;49.468;10.992;2024-01-06T02:12:26;6.40;99.90
14093;DHT22;7123;49.468;10.992;2024-01-06T02:14:52;6.30;99.90
14093;DHT22;7123;49.468;10.992;2024-01-06T02:17:19;6.20;99.90
14093;DHT22;7123;49.468;10.992;2024-01-06T02:19:46;6.10;99.90
14093;DHT22;7123;49.468;10.992;2024-01-06T02:22:13;6.10;99.90
14093;DHT22;7123;49.468;10.992;2024-01-06T02:24:40;6.10;99.90
14093;DHT22;7123;49.468;10.992;2024-01-06T02:27:07;6.20;99.90
14093;DHT22;7123;49.468;10.992;2024-01-06T02:29:33;6.10;99.90
14093;DHT22;7123;49.468;10.992;2024-01-06T02:32:00;6.10;99.90
14093;DHT22;7123;49.468;10.992;2024-01-06T02:34:27;6.20;99.90
14093;DHT22;7123;49.468;10.992;2024-01-06T02:36:54;6.20;99.90
14093;DHT22;7123;49.468;10.992;2024-01-06T02:39:21;6.20;99.90
14093;DHT22;7123;49.468;10.992;2024-01-06T02:41:48;6.20;99.90
14093;DHT22;7123;49.468;10.992;2024-01-06T02:44:15;6.20;99.90
14093;DHT22;7123;49.468;10.992;2024-01-06T02:46:42;6.30;99.90
14093;DHT22;7123;49.468;10.992;2024-01-06T02:49:08;6.30;99.90
14093;DHT22;7123;49.468;10.992;2024-01-06T02:51:35;6.30;99.90
14093;DHT22;7123;49.468;10.992;2024-01-06T02:54:02;6.40;99.90
14093;DHT22;7123;49.468;10.992;2024-01-06T02:56:29;6.40;99.90
14093;DHT22;7123;49.468;10.992;2024-01-06T02:58:56;6.40;99.90
14093;DHT22;7123;49.468;10.992;2024-01-06T03:01:22;6.40;99.90
14093;DHT22;7123;49.468;10.992;2024-01-06T03:03:49;6.50;99.90
14093;DHT22;7123;49.468;10.992;2024-01-06T03:06:16;6.50;99.90
14093;DHT22;7123;49.468;10.992;2024-01-06T03:08:43;6.50;99.90
14093;DHT22;7123;49.468;10.992;2024-01-06T03:11:10;6.40;99.90
14093;DHT22;7123;49.468;10.992;2024-01-06T03:13:37;6.50;99.90
14093;DHT22;7123;49.468;10.992;2024-01-06T03:16:04;6.40;99.90
14093;DHT22;7123;49.468;10.992;2024-01-06T03:18:31;6.50;99.90
14093;DHT22;7123;49.468;10.992;2024-01-06T03:20:58;6.40;99.90
14093;DHT22;7123;49.468;10.992;2024-01-06T03:23:25;6.10;99.90
14093;DHT22;7123;49.468;10.992;2024-01-06T03:25:52;5.90;99.90
14093;DHT22;7123;49.468;10.992;2024-01-06T03:28:19;5.70;99.90
14093;DHT22;7123;49.468;10.992;2024-01-06T03:30:45;5.70;99.90
14093;DHT22;7123;49.468;10.992;2024-01-06T03:33:13;5.60;99.90
14093;DHT22;7123;49.468;10.992;2024-01-06T03:35:39;5.60;99.90
14093;DHT22;7123;49.468;10.992;2024-01-06T03:38:06;5.70;99.90
14093;DHT22;7123;49.468;10.992;2024-01-06T03:40:33;5.70;99.90
14093;DHT22;7123;49.468;10.992;2024-01-06T03:42:59;5.60;99.90
14093;DHT22;7123;49.468;10.992;2024-01-06T03:45:27;5.70;99.90
14093;DHT22;7123;49.468;10.992;2024-01-06T03:47:53;5.70;99.90
14093;DHT22;7123;49.468;10.992;2024-01-06T03:50:20;5.70;99.90
14093;DHT22;7123;49.468;10.992;2024-01-06T03:52:47;5.60;99.90
14093;DHT22;7123;49.468;10.992;2024-01-06T03:55:15;5.60;99.90
14093;DHT22;7123;49.468;10.992;2024-01-06T03:57:42;5.50;99.90
14093;DHT22;7123;49.468;10.992;2024-01-06T04:00:10;5.50;99.90
14093;DHT22;7123;49.468;10.992;2024-01-06T04:02:37;5.60;99.90
14093;DHT22;7123;49.468;10.992;2024-01-06T04:05:03;5.60;99.90
14093;DHT22;7123;49.468;10.992;2024-01-06T04:07:31;5.60;99.90
14093;DHT22;7123;49.468;10.992;2024-01-06T04:09:58;5.60;99.90
14093;DHT22;7123;49.468;10.992;2024-01-06T04:12:25;5.60;99.90
14093;DHT22;7123;49.468;10.992;2024-01-06T04:14:52;5.50;99.90
14093;DHT22;7123;49.468;10.992;2024-01-06T04:17:19;5.60;99.90
14093;DHT22;7123;49.468;10.992;2024-01-06T04:19:46;5.60;99.90
14093;DHT22;7123;49.468;10.992;2024-01-06T04:22:13;5.60;99.90
14093;DHT22;7123;49.468;10.992;2024-01-06T04:24:40;5.60;99.90
14093;DHT22;7123;49.468;10.992;2024-01-06T04:27:07;5.60;99.90
14093;DHT22;7123;49.468;10.992;2024-01-06T04:29:34;5.60;99.90
14093;DHT22;7123;49.468;10.992;2024-01-06T04:32:00;5.50;99.90
14093;DHT22;7123;49.468;10.992;2024-01-06T04:34:27;5.50;99.90
14093;DHT22;7123;49.468;10.992;2024-01-06T04:36:54;5.50;99.90
14093;DHT22;7123;49.468;10.992;2024-01-06T04:39:21;5.50;99.90
14093;DHT22;7123;49.468;10.992;2024-01-06T04:41:48;5.50;99.90
14093;DHT22;7123;49.468;10.992;2024-01-06T04:44:14;5.50;99.90
14093;DHT22;7123;49.468;10.992;2024-01-06T04:46:41;5.50;99.90
14093;DHT22;7123;49.468;10.992;2024-01-06T04:49:08;5.50;99.90
14093;DHT22;7123;49.468;10.992;2024-01-06T04:51:34;5.50;99.90
14093;DHT22;7123;49.468;10.992;2024-01-06T04:54:01;5.60;99.90
14093;DHT22;7123;49.468;10.992;2024-01-06T04:56:28;5.60;99.90
14093;DHT22;7123;49.468;10.992;2024-01-06T04:58:57;5.60;99.90
14093;DHT22;7123;49.468;10.992;2024-01-06T05:01:24;5.70;99.90
14093;DHT22;7123;49.468;10.992;2024-01-06T05:03:51;5.60;99.90
14093;DHT22;7123;49.468;10.992;2024-01-06T05:06:18;5.60;99.90
14093;DHT22;7123;49.468;10.992;2024-01-06T05:08:45;5.70;99.90
14093;DHT22;7123;49.468;10.992;2024-01-06T05:11:12;5.70;99.90
14093;DHT22;7123;49.468;10.992;2024-01-06T05:13:39;5.70;99.90
14093;DHT22;7123;49.468;10.992;2024-01-06T05:16:06;5.80;99.90
14093;DHT22;7123;49.468;10.992;2024-01-06T05:18:33;5.90;99.90
14093;DHT22;7123;49.468;10.992;2024-01-06T05:21:00;5.90;99.90
14093;DHT22;7123;49.468;10.992;2024-01-06T05:23:27;6.00;99.90
14093;DHT22;7123;49.468;10.992;2024-01-06T05:25:54;6.00;99.90
14093;DHT22;7123;49.468;10.992;2024-01-06T05:28:21;6.00;99.90
14093;DHT22;7123;49.468;10.992;2024-01-06T05:30:47;6.00;99.90
14093;DHT22;7123;49.468;10.992;2024-01-06T05:33:15;6.00;99.90
14093;DHT22;7123;49.468;10.992;2024-01-06T05:35:42;5.80;99.90
14093;DHT22;7123;49.468;10.992;2024-01-06T05:38:09;5.70;99.90
14093;DHT22;7123;49.468;10.992;2024-01-06T05:40:36;5.60;99.90
14093;DHT22;7123;49.468;10.992;2024-01-06T05:43:03;5.50;99.90
14093;DHT22;7123;49.468;10.992;2024-01-06T05:45:29;5.40;99.90
14093;DHT22;7123;49.468;10.992;2024-01-06T05:47:57;5.20;99.90
14093;DHT22;7123;49.468;10.992;2024-01-06T05:50:24;5.10;99.90
14093;DHT22;7123;49.468;10.992;2024-01-06T05:52:51;5.00;99.90
14093;DHT22;7123;49.468;10.992;2024-01-06T05:55:19;5.00;99.90
14093;DHT22;7123;49.468;10.992;2024-01-06T05:57:46;5.00;99.90
14093;DHT22;7123;49.468;10.992;2024-01-06T06:00:13;5.10;99.90
14093;DHT22;7123;49.468;10.992;2024-01-06T06:02:40;5.10;99.90
14093;DHT22;7123;49.468;10.992;2024-01-06T06:05:07;5.10;99.90
14093;DHT22;7123;49.468;10.992;2024-01-06T06:07:34;5.10;99.90
14093;DHT22;7123;49.468;10.992;2024-01-06T06:10:09;5.00;99.90
14093;DHT22;7123;49.468;10.992;2024-01-06T06:12:37;5.00;99.90
14093;DHT22;7123;49.468;10.992;2024-01-06T06:15:04;5.00;99.90
14093;DHT22;7123;49.468;10.992;2024-01-06T06:17:33;5.00;99.90
14093;DHT22;7123;49.468;10.992;2024-01-06T06:19:59;5.00;99.90
14093;DHT22;7123;49.468;10.992;2024-01-06T06:22:27;5.00;99.90
14093;DHT22;7123;49.468;10.992;2024-01-06T06:24:57;5.00;99.90
14093;DHT22;7123;49.468;10.992;2024-01-06T06:27:24;4.90;99.90
14093;DHT22;7123;49.468;10.992;2024-01-06T06:29:52;4.90;99.90
14093;DHT22;7123;49.468;10.992;2024-01-06T06:32:19;4.90;99.90
14093;DHT22;7123;49.468;10.992;2024-01-06T06:34:45;4.90;99.90
14093;DHT22;7123;49.468;10.992;2024-01-06T06:37:12;4.80;99.90
14093;DHT22;7123;49.468;10.992;2024-01-06T06:39:39;4.90;99.90
14093;DHT22;7123;49.468;10.992;2024-01-06T06:42:06;4.90;99.90
14093;DHT22;7123;49.468;10.992;2024-01-06T06:44:32;4.90;99.90
14093;DHT22;7123;49.468;10.992;2024-01-06T06:46:59;5.00;99.90
14093;DHT22;7123;49.468;10.992;2024-01-06T06:49:26;5.10;99.90
14093;DHT22;7123;49.468;10.992;2024-01-06T06:51:53;5.20;99.90
14093;DHT22;7123;49.468;10.992;2024-01-06T06:54:19;5.30;99.90
14093;DHT22;7123;49.468;10.992;2024-01-06T06:56:47;5.30;99.90
14093;DHT22;7123;49.468;10.992;2024-01-06T06:59:14;5.50;99.90
14093;DHT22;7123;49.468;10.992;2024-01-06T07:01:41;5.50;99.90
14093;DHT22;7123;49.468;10.992;2024-01-06T07:04:08;5.50;99.90
14093;DHT22;7123;49.468;10.992;2024-01-06T07:06:34;5.60;99.90
14093;DHT22;7123;49.468;10.992;2024-01-06T07:09:01;5.60;99.90
14093;DHT22;7123;49.468;10.992;2024-01-06T07:11:29;5.50;99.90
14093;DHT22;7123;49.468;10.992;2024-01-06T07:13:56;5.40;99.90
14093;DHT22;7123;49.468;10.992;2024-01-06T07:16:22;5.20;99.90
14093;DHT22;7123;49.468;10.992;2024-01-06T07:18:49;5.10;99.90
14093;DHT22;7123;49.468;10.992;2024-01-06T07:21:16;5.10;99.90
14093;DHT22;7123;49.468;10.992;2024-01-06T07:23:43;5.00;99.90
14093;DHT22;7123;49.468;10.992;2024-01-06T07:26:10;4.90;99.90
14093;DHT22;7123;49.468;10.992;2024-01-06T07:28:36;4.90;99.90
14093;DHT22;7123;49.468;10.992;2024-01-06T07:31:03;4.90;99.90
14093;DHT22;7123;49.468;10.992;2024-01-06T07:33:31;4.90;99.90
14093;DHT22;7123;49.468;10.992;2024-01-06T07:35:58;5.00;99.90
14093;DHT22;7123;49.468;10.992;2024-01-06T07:38:25;5.00;99.90
14093;DHT22;7123;49.468;10.992;2024-01-06T07:40:51;5.10;99.90
14093;DHT22;7123;49.468;10.992;2024-01-06T07:43:18;5.20;99.90
14093;DHT22;7123;49.468;10.992;2024-01-06T07:45:45;5.30;99.90
14093;DHT22;7123;49.468;10.992;2024-01-06T07:48:12;5.40;99.90
14093;DHT22;7123;49.468;10.992;2024-01-06T07:50:39;5.40;99.90
14093;DHT22;7123;49.468;10.992;2024-01-06T07:53:05;5.40;99.90
14093;DHT22;7123;49.468;10.992;2024-01-06T07:55:32;5.30;99.90
14093;DHT22;7123;49.468;10.992;2024-01-06T07:57:59;5.20;99.90
14093;DHT22;7123;49.468;10.992;2024-01-06T08:00:26;5.00;99.90
14093;DHT22;7123;49.468;10.992;2024-01-06T08:02:53;5.00;99.90
14093;DHT22;7123;49.468;10.992;2024-01-06T08:05:19;4.90;99.90
14093;DHT22;7123;49.468;10.992;2024-01-06T08:07:46;4.80;99.90
14093;DHT22;7123;49.468;10.992;2024-01-06T08:10:13;4.80;99.90
14093;DHT22;7123;49.468;10.992;2024-01-06T08:12:40;4.70;99.90
14093;DHT22;7123;49.468;10.992;2024-01-06T08:15:07;4.70;99.90
14093;DHT22;7123;49.468;10.992;2024-01-06T08:17:36;4.70;99.90
14093;DHT22;7123;49.468;10.992;2024-01-06T08:20:03;4.80;99.90
14093;DHT22;7123;49.468;10.992;2024-01-06T08:22:30;4.80;99.90
14093;DHT22;7123;49.468;10.992;2024-01-06T08:24:56;4.80;99.90
14093;DHT22;7123;49.468;10.992;2024-01-06T08:27:23;4.90;99.90
14093;DHT22;7123;49.468;10.992;2024-01-06T08:29:50;5.00;99.90
14093;DHT22;7123;49.468;10.992;2024-01-06T08:32:17;5.20;99.90
14093;DHT22;7123;49.468;10.992;2024-01-06T08:34:44;5.20;99.90
14093;DHT22;7123;49.468;10.992;2024-01-06T08:37:11;5.30;99.90
14093;DHT22;7123;49.468;10.992;2024-01-06T08:39:37;5.30;99.90
14093;DHT22;7123;49.468;10.992;2024-01-06T08:42:04;5.40;99.90
14093;DHT22;7123;49.468;10.992;2024-01-06T08:44:31;5.50;99.90
14093;DHT22;7123;49.468;10.992;2024-01-06T08:46:58;5.50;99.90
14093;DHT22;7123;49.468;10.992;2024-01-06T08:49:25;5.60;99.90
14093;DHT22;7123;49.468;10.992;2024-01-06T08:51:52;5.70;99.90
14093;DHT22;7123;49.468;10.992;2024-01-06T08:54:18;5.80;99.90
14093;DHT22;7123;49.468;10.992;2024-01-06T08:56:45;5.80;99.90
14093;DHT22;7123;49.468;10.992;2024-01-06T08:59:12;5.90;99.90
14093;DHT22;7123;49.468;10.992;2024-01-06T09:01:39;5.90;99.90
14093;DHT22;7123;49.468;10.992;2024-01-06T09:04:05;5.90;99.90
14093;DHT22;7123;49.468;10.992;2024-01-06T09:06:33;6.00;99.90
14093;DHT22;7123;49.468;10.992;2024-01-06T09:09:00;6.00;99.90
14093;DHT22;7123;49.468;10.992;2024-01-06T09:11:27;6.00;99.90
14093;DHT22;7123;49.468;10.992;2024-01-06T09:13:54;6.10;99.90
14093;DHT22;7123;49.468;10.992;2024-01-06T09:16:21;6.10;99.90
14093;DHT22;7123;49.468;10.992;2024-01-06T09:18:48;6.10;99.90
14093;DHT22;7123;49.468;10.992;2024-01-06T09:21:16;6.10;99.90
14093;DHT22;7123;49.468;10.992;2024-01-06T09:23:44;6.10;99.90
14093;DHT22;7123;49.468;10.992;2024-01-06T09:26:11;6.10;99.90
14093;DHT22;7123;49.468;10.992;2024-01-06T09:28:37;6.20;99.90
14093;DHT22;7123;49.468;10.992;2024-01-06T09:31:04;6.10;99.90
14093;DHT22;7123;49.468;10.992;2024-01-06T09:33:31;6.20;99.90
14093;DHT22;7123;49.468;10.992;2024-01-06T09:36:01;6.20;99.90
14093;DHT22;7123;49.468;10.992;2024-01-06T09:38:28;6.20;99.90
14093;DHT22;7123;49.468;10.992;2024-01-06T09:40:55;6.20;99.90
14093;DHT22;7123;49.468;10.992;2024-01-06T09:43:22;6.20;99.90
14093;DHT22;7123;49.468;10.992;2024-01-06T09:45:58;6.20;99.90
14093;DHT22;7123;49.468;10.992;2024-01-06T09:48:29;6.20;99.90
14093;DHT22;7123;49.468;10.992;2024-01-06T09:51:02;6.10;99.90
14093;DHT22;7123;49.468;10.992;2024-01-06T09:53:34;6.10;99.90
14093;DHT22;7123;49.468;10.992;2024-01-06T09:56:03;6.10;99.90
14093;DHT22;7123;49.468;10.992;2024-01-06T09:58:31;6.10;99.90
14093;DHT22;7123;49.468;10.992;2024-01-06T10:01:00;6.10;99.90
14093;DHT22;7123;49.468;10.992;2024-01-06T10:03:28;6.10;99.90
14093;DHT22;7123;49.468;10.992;2024-01-06T10:05:55;6.10;99.90
14093;DHT22;7123;49.468;10.992;2024-01-06T10:08:27;6.10;99.90
14093;DHT22;7123;49.468;10.992;2024-01-06T10:10:53;6.00;99.90
14093;DHT22;7123;49.468;10.992;2024-01-06T10:13:20;6.00;99.90
14093;DHT22;7123;49.468;10.992;2024-01-06T10:15:47;6.10;99.90
14093;DHT22;7123;49.468;10.992;2024-01-06T10:18:14;6.10;99.90
14093;DHT22;7123;49.468;10.992;2024-01-06T10:20:41;6.00;99.90
14093;DHT22;7123;49.468;10.992;2024-01-06T10:23:07;6.00;99.90
14093;DHT22;7123;49.468;10.992;2024-01-06T10:25:34;6.00;99.90
14093;DHT22;7123;49.468;10.992;2024-01-06T10:28:02;6.00;99.90
14093;DHT22;7123;49.468;10.992;2024-01-06T10:30:29;6.00;99.90
14093;DHT22;7123;49.468;10.992;2024-01-06T10:32:56;6.00;99.90
14093;DHT22;7123;49.468;10.992;2024-01-06T10:35:25;6.10;99.90
14093;DHT22;7123;49.468;10.992;2024-01-06T10:37:52;6.10;99.90
14093;DHT22;7123;49.468;10.992;2024-01-06T10:40:20;6.20;99.90
14093;DHT22;7123;49.468;10.992;2024-01-06T10:42:47;6.20;99.90
14093;DHT22;7123;49.468;10.992;2024-01-06T10:45:14;6.20;99.90
14093;DHT22;7123;49.468;10.992;2024-01-06T10:47:42;6.30;99.90
14093;DHT22;7123;49.468;10.992;2024-01-06T10:50:10;6.30;99.90
14093;DHT22;7123;49.468;10.992;2024-01-06T10:52:38;6.30;99.90
14093;DHT22;7123;49.468;10.992;2024-01-06T10:55:05;6.30;99.90
14093;DHT22;7123;49.468;10.992;2024-01-06T10:57:33;6.40;99.90
14093;DHT22;7123;49.468;10.992;2024-01-06T11:00:01;6.40;99.90
14093;DHT22;7123;49.468;10.992;2024-01-06T11:02:28;6.50;99.90
14093;DHT22;7123;49.468;10.992;2024-01-06T11:04:55;6.50;99.90
14093;DHT22;7123;49.468;10.992;2024-01-06T11:07:25;6.50;99.90
14093;DHT22;7123;49.468;10.992;2024-01-06T11:09:57;6.50;99.90
14093;DHT22;7123;49.468;10.992;2024-01-06T11:12:25;6.60;99.90
14093;DHT22;7123;49.468;10.992;2024-01-06T11:14:54;6.60;99.90
14093;DHT22;7123;49.468;10.992;2024-01-06T11:17:53;6.60;99.90
14093;DHT22;7123;49.468;10.992;2024-01-06T11:20:23;6.60;99.90
14093;DHT22;7123;49.468;10.992;2024-01-06T11:22:50;6.60;99.90
14093;DHT22;7123;49.468;10.992;2024-01-06T11:25:19;6.70;99.90
14093;DHT22;7123;49.468;10.992;2024-01-06T11:27:50;6.70;99.90
14093;DHT22;7123;49.468;10.992;2024-01-06T11:30:25;6.70;99.90
14093;DHT22;7123;49.468;10.992;2024-01-06T11:32:53;6.70;99.90
14093;DHT22;7123;49.468;10.992;2024-01-06T11:35:21;6.70;99.90
14093;DHT22;7123;49.468;10.992;2024-01-06T11:40:24;6.70;99.90
14093;DHT22;7123;49.468;10.992;2024-01-06T11:42:59;6.80;99.90
14093;DHT22;7123;49.468;10.992;2024-01-06T11:45:27;6.80;99.90
14093;DHT22;7123;49.468;10.992;2024-01-06T11:47:58;6.80;99.90
14093;DHT22;7123;49.468;10.992;2024-01-06T11:50:27;6.80;99.90
14093;DHT22;7123;49.468;10.992;2024-01-06T11:52:55;6.80;99.90
14093;DHT22;7123;49.468;10.992;2024-01-06T11:55:22;6.80;99.90
14093;DHT22;7123;49.468;10.992;2024-01-06T11:57:49;6.80;99.90
14093;DHT22;7123;49.468;10.992;2024-01-06T12:00:17;6.70;99.90
14093;DHT22;7123;49.468;10.992;2024-01-06T12:02:45;6.70;99.90
14093;DHT22;7123;49.468;10.992;2024-01-06T12:05:18;6.70;99.90
14093;DHT22;7123;49.468;10.992;2024-01-06T12:07:56;6.70;99.90
14093;DHT22;7123;49.468;10.992;2024-01-06T12:10:24;6.70;99.90
14093;DHT22;7123;49.468;10.992;2024-01-06T12:13:00;6.60;99.90
14093;DHT22;7123;49.468;10.992;2024-01-06T12:15:29;6.60;99.90
14093;DHT22;7123;49.468;10.992;2024-01-06T12:17:57;6.70;99.90
14093;DHT22;7123;49.468;10.992;2024-01-06T12:20:26;6.60;99.90
14093;DHT22;7123;49.468;10.992;2024-01-06T12:22:53;6.60;99.90
14093;DHT22;7123;49.468;10.992;2024-01-06T12:25:21;6.50;99.90
14093;DHT22;7123;49.468;10.992;2024-01-06T12:27:49;6.50;99.90
14093;DHT22;7123;49.468;10.992;2024-01-06T12:30:17;6.40;99.90
14093;DHT22;7123;49.468;10.992;2024-01-06T12:32:46;6.40;99.90
14093;DHT22;7123;49.468;10.992;2024-01-06T12:35:16;6.30;99.90
14093;DHT22;7123;49.468;10.992;2024-01-06T12:37:43;6.40;99.90
14093;DHT22;7123;49.468;10.992;2024-01-06T12:40:15;6.30;99.90
14093;DHT22;7123;49.468;10.992;2024-01-06T12:42:44;6.30;99.90
14093;DHT22;7123;49.468;10.992;2024-01-06T12:45:12;6.40;99.90
14093;DHT22;7123;49.468;10.992;2024-01-06T12:47:45;6.40;99.90
14093;DHT22;7123;49.468;10.992;2024-01-06T12:50:12;6.40;99.90
14093;DHT22;7123;49.468;10.992;2024-01-06T12:52:39;6.40;99.90
14093;DHT22;7123;49.468;10.992;2024-01-06T12:55:07;6.40;99.90
14093;DHT22;7123;49.468;10.992;2024-01-06T12:57:34;6.40;99.90
14093;DHT22;7123;49.468;10.992;2024-01-06T13:00:02;6.40;99.90
14093;DHT22;7123;49.468;10.992;2024-01-06T13:02:29;6.40;99.90
14093;DHT22;7123;49.468;10.992;2024-01-06T13:04:56;6.40;99.90
14093;DHT22;7123;49.468;10.992;2024-01-06T13:07:23;6.40;99.90
14093;DHT22;7123;49.468;10.992;2024-01-06T13:09:50;6.40;99.90
14093;DHT22;7123;49.468;10.992;2024-01-06T13:12:17;6.40;99.90
14093;DHT22;7123;49.468;10.992;2024-01-06T13:14:45;6.30;99.90
14093;DHT22;7123;49.468;10.992;2024-01-06T13:17:13;6.20;99.90
14093;DHT22;7123;49.468;10.992;2024-01-06T13:19:43;6.30;99.90
14093;DHT22;7123;49.468;10.992;2024-01-06T13:22:10;6.30;99.90
14093;DHT22;7123;49.468;10.992;2024-01-06T13:24:37;6.40;99.90
14093;DHT22;7123;49.468;10.992;2024-01-06T13:27:04;6.40;99.90
14093;DHT22;7123;49.468;10.992;2024-01-06T13:29:31;6.40;99.90
14093;DHT22;7123;49.468;10.992;2024-01-06T13:31:58;6.50;99.90
14093;DHT22;7123;49.468;10.992;2024-01-06T13:34:26;6.50;99.90
14093;DHT22;7123;49.468;10.992;2024-01-06T13:36:53;6.40;99.90
14093;DHT22;7123;49.468;10.992;2024-01-06T13:39:23;6.40;99.90
14093;DHT22;7123;49.468;10.992;2024-01-06T13:41:50;6.40;99.90
14093;DHT22;7123;49.468;10.992;2024-01-06T13:44:17;6.40;99.90
14093;DHT22;7123;49.468;10.992;2024-01-06T13:46:44;6.40;99.90
14093;DHT22;7123;49.468;10.992;2024-01-06T13:49:11;6.40;99.90
14093;DHT22;7123;49.468;10.992;2024-01-06T13:51:40;6.40;99.90
14093;DHT22;7123;49.468;10.992;2024-01-06T13:54:07;6.40;99.90
14093;DHT22;7123;49.468;10.992;2024-01-06T13:56:34;6.40;99.90
14093;DHT22;7123;49.468;10.992;2024-01-06T13:59:00;6.40;99.90
14093;DHT22;7123;49.468;10.992;2024-01-06T14:01:27;6.40;99.90
14093;DHT22;7123;49.468;10.992;2024-01-06T14:03:55;6.30;99.90
14093;DHT22;7123;49.468;10.992;2024-01-06T14:06:28;6.40;99.90
14093;DHT22;7123;49.468;10.992;2024-01-06T14:08:58;6.40;99.90
14093;DHT22;7123;49.468;10.992;2024-01-06T14:11:28;6.30;99.90
14093;DHT22;7123;49.468;10.992;2024-01-06T14:14:00;6.30;99.90
14093;DHT22;7123;49.468;10.992;2024-01-06T14:16:27;6.30;99.90
14093;DHT22;7123;49.468;10.992;2024-01-06T14:18:53;6.20;99.90
14093;DHT22;7123;49.468;10.992;2024-01-06T14:21:20;6.20;99.90
14093;DHT22;7123;49.468;10.992;2024-01-06T14:23:47;6.20;99.90
14093;DHT22;7123;49.468;10.992;2024-01-06T14:26:17;6.30;99.90
14093;DHT22;7123;49.468;10.992;2024-01-06T14:28:47;6.20;99.90
14093;DHT22;7123;49.468;10.992;2024-01-06T14:31:14;6.30;99.90
14093;DHT22;7123;49.468;10.992;2024-01-06T14:33:41;6.30;99.90
14093;DHT22;7123;49.468;10.992;2024-01-06T14:36:08;6.40;99.90
14093;DHT22;7123;49.468;10.992;2024-01-06T14:38:34;6.20;99.90
14093;DHT22;7123;49.468;10.992;2024-01-06T14:41:01;6.20;99.90
14093;DHT22;7123;49.468;10.992;2024-01-06T14:43:28;6.20;99.90
14093;DHT22;7123;49.468;10.992;2024-01-06T14:45:56;6.20;99.90
14093;DHT22;7123;49.468;10.992;2024-01-06T14:48:23;6.20;99.90
14093;DHT22;7123;49.468;10.992;2024-01-06T14:50:50;6.20;99.90
14093;DHT22;7123;49.468;10.992;2024-01-06T14:53:17;6.20;99.90
14093;DHT22;7123;49.468;10.992;2024-01-06T14:55:44;6.10;99.90
14093;DHT22;7123;49.468;10.992;2024-01-06T14:58:11;6.10;99.90
14093;DHT22;7123;49.468;10.992;2024-01-06T15:00:38;6.20;99.90
14093;DHT22;7123;49.468;10.992;2024-01-06T15:03:05;6.20;99.90
14093;DHT22;7123;49.468;10.992;2024-01-06T15:05:32;6.20;99.90
14093;DHT22;7123;49.468;10.992;2024-01-06T15:07:59;6.10;99.90
14093;DHT22;7123;49.468;10.992;2024-01-06T15:10:26;6.10;99.90
14093;DHT22;7123;49.468;10.992;2024-01-06T15:12:53;6.00;99.90
14093;DHT22;7123;49.468;10.992;2024-01-06T15:15:20;6.00;99.90
14093;DHT22;7123;49.468;10.992;2024-01-06T15:17:47;6.00;99.90
14093;DHT22;7123;49.468;10.992;2024-01-06T15:20:14;6.00;99.90
14093;DHT22;7123;49.468;10.992;2024-01-06T15:22:41;6.00;99.90
14093;DHT22;7123;49.468;10.992;2024-01-06T15:25:08;6.00;99.90
14093;DHT22;7123;49.468;10.992;2024-01-06T15:27:36;5.90;99.90
14093;DHT22;7123;49.468;10.992;2024-01-06T15:30:03;6.00;99.90
14093;DHT22;7123;49.468;10.992;2024-01-06T15:32:36;6.00;99.90
14093;DHT22;7123;49.468;10.992;2024-01-06T15:35:04;6.00;99.90
14093;DHT22;7123;49.468;10.992;2024-01-06T15:37:31;6.00;99.90
14093;DHT22;7123;49.468;10.992;2024-01-06T15:39:58;6.10;99.90
14093;DHT22;7123;49.468;10.992;2024-01-06T15:42:25;6.00;99.90
14093;DHT22;7123;49.468;10.992;2024-01-06T15:44:52;6.10;99.90
14093;DHT22;7123;49.468;10.992;2024-01-06T15:47:19;6.20;99.90